Lanzarote > ESTACION METEOROLÓGICA Órzola - Haría

DATOS ACTUALES Online

Ultima actulizacion 23 minutos

20.2 ºC

Temperatura

72

Humedad (%)

1013.44

Presión (mb)

0

Precipitación (mm)

15.9 NW

Viento (Km/h)

DATOS DIARIOS

Temperatura últimas 24 horas (ºC)

Humedad últimas 24 horas (%)

Presión atmosférica últimas 24 horas (mb)

Precipitaciones últimas 23 horas (mm)

Viento últimas 24 horas (Km/h)

Hora Temperatura (°C) ºC Precipitación (mm) mm Presión (mb) mb Humedad (%) % Viento (Km/h) km/h
29 - 01:00 20 0 1014 77 19.7 NW
29 - 02:00 19.9 0 1013 74 16.4 NW
29 - 03:00 19.9 0 1013 73 18.3 NW
29 - 04:00 19.7 0 1012 71 23.5 NW
29 - 05:00 19.5 0 1012 71 21.6 NW
29 - 06:00 19.7 0 1012 77 18.5 NW
29 - 07:00 19.7 0 1013 74 10.8 NW
29 - 08:00 20.7 0 1013 70 17.3 NW
29 - 09:00 21.1 0 1014 65 21.1 NW
29 - 10:00 21.7 0 1014 62 34.9 NW
29 - 11:00 21.5 0 1014 67 33.3 NW
29 - 12:00 22.4 0 1014 60 33 NW
29 - 13:00 22.5 0 1014 59 27.7 NW
29 - 14:00 22.6 0 1013 60 31.6 NW
29 - 15:00 22.4 0 1013 59 28.2 N
29 - 16:00 22.5 0 1013 58 28.3 NW
29 - 17:00 22 0 1013 64 24.7 NW
29 - 18:00 21.6 0 1012 66 29.1 NW
29 - 19:00 21 0 1013 68 36.2 NW
29 - 20:00 20.9 0 1013 70 16.6 NW
29 - 21:00 20.8 0 1013 72 18.6 NW
29 - 22:00 20.6 0 1013 73 26.3 NW
29 - 23:00 20.3 0 1014 72 18.5 NW
30 - 00:00 20.2 0 1013 72 15.9 NW
30 - 01:00
Apalmet utiliza cookies propias y de terceros para mejorar la usabilidad y la experiencia web. Política de cookies.